Flight Track Log - Related Links

Times and Time Zones

All times are in EDT time to prevent confusion due to time zone crossing. See the VH-VJE flight status page for this flight to view local times or setup timezone preferences in your user account.

Time Position Orientation Groundspeed Altitude Reporting Facility
EDT Latitude Longitude Course Direction KTS MPH feet Rate Location/Type
Thu 06:28:56 PM -26.8142 150.7836 106° East 9,000  Level Aus ATC (Calculated)
Thu 06:30:37 PM -26.8412 150.8846 102° East 9,000 -153 Level Aus ATC (Calculated)
Thu 06:32:00 PM -26.8582 150.9522 106° East  Level Estimated
Thu 06:32:52 PM -26.8470 150.9147 106° East 219 252 8,400  Level Aus ATC (RADAR)
Thu 06:35:22 PM -26.8965 151.0866 108° East 237 273 9,000 153 Climbing Aus ATC (RADAR)
Thu 06:36:47 PM -26.9182 151.1858 104° East 220 253 9,000  Level Aus ATC (RADAR)
Thu 06:38:41 PM -26.9496 151.3102 106° East 216 249 9,000  Level Aus ATC (RADAR)
Thu 06:41:41 PM -27.0027 151.5031 107° East 213 245 9,000  Level Aus ATC (RADAR)
Thu 06:43:02 PM -27.0267 151.5894 107° East 215 247 9,000  Level Aus ATC (RADAR)
Thu 06:43:04 PM -27.0250 151.5870 107° East 9,000  Level FlightAware ADS-B
Thu 06:43:38 PM -27.0350 151.6280 105° East 9,000  Level FlightAware ADS-B
Thu 06:44:03 PM -27.0420 151.6560 106° East 9,000  Level FlightAware ADS-B
Thu 06:44:28 PM -27.0480 151.6810 105° East 9,000  Level FlightAware ADS-B
Thu 06:44:51 PM -27.0546 151.7104 105° East 214 246 9,000  Level Aus ATC (RADAR)
Thu 06:44:58 PM -27.0560 151.7160 105° East 9,000  Level FlightAware ADS-B
Thu 06:45:28 PM -27.0650 151.7470 108° East 9,000  Level FlightAware ADS-B
Thu 06:45:53 PM -27.0720 151.7740 106° East 9,000  Level FlightAware ADS-B
Thu 06:46:23 PM -27.0810 151.8070 107° East 9,000  Level FlightAware ADS-B
Thu 06:46:53 PM -27.0890 151.8380 106° East 9,000  Level FlightAware ADS-B
Thu 06:47:23 PM -27.0950 151.8660 104° East 9,000  Level FlightAware ADS-B
Thu 06:47:48 PM -27.1010 151.8970 102° East 9,000  Level FlightAware ADS-B
Thu 06:48:08 PM -27.1060 151.9190 104° East 9,000  Level FlightAware ADS-B
Thu 06:48:43 PM -27.1160 151.9540 108° East 9,000  Level FlightAware ADS-B
Thu 06:49:10 PM -27.1196 151.9688 108° East 202 232 9,000 -16 Level Aus ATC (RADAR)
Thu 06:49:13 PM -27.1250 151.9850 108° East 9,000 -18 Level FlightAware ADS-B
Thu 06:49:38 PM -27.1310 152.0110 105° East 9,000 -18 Level FlightAware ADS-B
Thu 06:50:08 PM -27.1380 152.0420 104° East 9,000 -19 Level FlightAware ADS-B
Thu 06:50:38 PM -27.1460 152.0730 106° East 9,000 -21 Level FlightAware ADS-B
Thu 06:51:03 PM -27.1520 152.0980 105° East 9,100 -24 Climbing FlightAware ADS-B
Thu 06:51:33 PM -27.1600 152.1290 106° East 9,000 -53 Descending FlightAware ADS-B
Thu 06:51:58 PM -27.1680 152.1560 108° East 9,000 -30 Level FlightAware ADS-B
Thu 06:52:28 PM -27.1780 152.1860 111° Southeast 9,000 -35 Level FlightAware ADS-B
Thu 06:52:58 PM -27.1870 152.2160 109° East 9,000 -42 Level FlightAware ADS-B
Thu 06:53:23 PM -27.1930 152.2400 106° East 9,000 -54 Level FlightAware ADS-B
Thu 06:53:53 PM -27.2010 152.2740 105° East 9,000 -69 Level FlightAware ADS-B
Thu 06:54:08 PM -27.2050 152.2880 108° East 9,100 -105 Climbing FlightAware ADS-B
Thu 06:54:28 PM -27.2100 152.3100 104° East 9,000 -286 Descending FlightAware ADS-B
Thu 06:54:50 PM -27.2164 152.3377 104° East 211 243 8,900 -171 Descending Aus ATC (RADAR)
Thu 06:55:03 PM -27.2190 152.3490 104° East 9,000 -162 Climbing FlightAware ADS-B
Thu 06:55:18 PM -27.2220 152.3650 102° East 9,000 -195 Level FlightAware ADS-B
Thu 06:55:43 PM -27.2290 152.3920 106° East 9,000 -208 Level FlightAware ADS-B
Thu 06:56:13 PM -27.2380 152.4230 108° East 9,000 -233 Level FlightAware ADS-B
Thu 06:56:43 PM -27.2460 152.4540 106° East 9,000 -273 Level FlightAware ADS-B
Thu 06:57:08 PM -27.2510 152.4830 101° East 9,000 -329 Level FlightAware ADS-B
Thu 06:57:38 PM -27.2550 152.5160 98° East 8,800 -397 Descending FlightAware ADS-B
Thu 06:58:08 PM -27.2590 152.5500 98° East 8,600 -396 Descending FlightAware ADS-B
Thu 06:58:23 PM -27.2620 152.5680 101° East 8,600 -393 Level FlightAware ADS-B
Thu 06:58:48 PM -27.2670 152.5950 102° East 8,400 -522 Descending FlightAware ADS-B
Thu 06:59:09 PM -27.2717 152.6237 102° East 222 255 8,200 -689 Descending Aus ATC (RADAR)
Thu 06:59:18 PM -27.2730 152.6310 102° East 8,100 -713 Descending FlightAware ADS-B
Thu 06:59:43 PM -27.2790 152.6590 104° East 7,800 -717 Descending FlightAware ADS-B
Thu 07:00:13 PM -27.2870 152.6950 104° East 7,500 -716 Descending FlightAware ADS-B
Thu 07:00:28 PM -27.2910 152.7130 104° East 7,300 -811 Descending FlightAware ADS-B
Thu 07:00:50 PM -27.2964 152.7417 104° East 231 266 7,000 -654 Descending Aus ATC (RADAR)
Thu 07:00:53 PM -27.2960 152.7430 104° East 7,000 -635 Level FlightAware ADS-B
Thu 07:01:23 PM -27.3020 152.7820 100° East 6,500 -645 Descending FlightAware ADS-B
Thu 07:01:48 PM -27.3070 152.8110 101° East 6,200 -577 Descending FlightAware ADS-B
Thu 07:02:18 PM -27.3120 152.8470 99° East 5,600 -550 Descending FlightAware ADS-B
Thu 07:02:48 PM -27.3050 152.8810 77° East 5,100 -356 Descending FlightAware ADS-B
Thu 07:03:13 PM -27.2930 152.9050 61° Northeast 4,700 -85 Descending FlightAware ADS-B
Thu 07:03:43 PM -27.2780 152.9350 61° Northeast 4,200 391 Descending FlightAware ADS-B
Thu 07:03:59 PM -27.3043 152.8858 61° Northeast 223 257 5,000 -796 Climbing Aus ATC (RADAR)
Thu 07:04:08 PM -27.2680 152.9560 61° Northeast 3,900 -1,537 Descending FlightAware ADS-B
Thu 07:05:21 PM -27.2592 153.0202 61° Northeast 171 197 2,900 -932 Descending Aus ATC (RADAR)
Thu 07:06:49 PM -27.2962 153.0783 126° Southeast 145 167 1,400 -990 Descending Aus ATC (RADAR)
Thu 07:07:04 PM -27.3041 153.0842 146° Southeast 138 159 1,200 -661 Descending Aus ATC (RADAR)
Thu 07:08:38 PM -27.3518 153.1212 145° Southeast 125 144 200 -638 Descending Aus ATC (RADAR)

Login

Don't have an account? Register now (free) for customized features, flight alerts, and more!